createdAt,value
2019-02-27T00:01:05.099Z,6.14
2019-02-27T00:03:32.139Z,6.12
2019-02-27T00:05:59.211Z,6.11
2019-02-27T00:08:27.054Z,6.08
2019-02-27T00:10:54.610Z,6.06
2019-02-27T00:13:24.675Z,6.04
2019-02-27T00:15:50.785Z,6.01
2019-02-27T00:18:17.850Z,5.96
2019-02-27T00:20:44.901Z,5.90
2019-02-27T00:23:11.954Z,5.85
2019-02-27T00:25:39.000Z,5.79
2019-02-27T00:28:06.060Z,5.73
2019-02-27T00:30:33.115Z,5.66
2019-02-27T00:33:00.196Z,5.60
2019-02-27T00:35:27.228Z,5.53
2019-02-27T00:37:54.275Z,5.48
2019-02-27T00:40:21.313Z,5.42
2019-02-27T00:42:48.360Z,5.34
2019-02-27T00:45:15.430Z,5.25
2019-02-27T00:47:42.466Z,5.17
2019-02-27T00:50:09.553Z,5.11
2019-02-27T00:52:36.565Z,5.04
2019-02-27T00:55:05.210Z,4.97
2019-02-27T00:57:32.367Z,4.88
2019-02-27T00:59:59.402Z,4.81
2019-02-27T01:02:26.465Z,4.75
2019-02-27T01:04:53.512Z,4.70
2019-02-27T01:07:21.389Z,4.67
2019-02-27T01:09:49.495Z,4.62
2019-02-27T01:12:16.544Z,4.58
2019-02-27T01:14:43.599Z,4.55
2019-02-27T01:17:10.659Z,4.53
2019-02-27T01:19:39.251Z,4.53
2019-02-27T01:22:06.432Z,4.47
2019-02-27T01:24:33.459Z,4.43
2019-02-27T01:27:04.135Z,4.42
2019-02-27T01:29:29.461Z,4.42
2019-02-27T01:31:57.677Z,4.43
2019-02-27T01:34:25.237Z,4.48
2019-02-27T01:36:52.271Z,4.53
2019-02-27T01:39:19.331Z,4.57
2019-02-27T01:41:46.412Z,4.61
2019-02-27T01:44:13.801Z,4.65
2019-02-27T01:46:41.275Z,4.66
2019-02-27T01:49:08.291Z,4.66
2019-02-27T01:51:35.322Z,4.64
2019-02-27T01:54:02.359Z,4.62
2019-02-27T01:56:29.728Z,4.61
2019-02-27T01:58:56.739Z,4.62
2019-02-27T02:01:23.787Z,4.62
2019-02-27T02:03:50.841Z,4.63
2019-02-27T02:06:17.901Z,4.65
2019-02-27T02:08:47.955Z,4.67
2019-02-27T02:11:13.905Z,4.70
2019-02-27T02:14:13.200Z,4.71
2019-02-27T02:17:09.186Z,4.68
2019-02-27T02:20:27.746Z,4.66
2019-02-27T02:23:14.271Z,4.63
2019-02-27T02:26:05.524Z,4.58
2019-02-27T02:29:21.008Z,4.55
2019-02-27T02:32:09.642Z,4.51
2019-02-27T02:35:14.852Z,4.46
2019-02-27T02:38:15.721Z,4.43
2019-02-27T02:41:11.992Z,4.40
2019-02-27T02:44:10.509Z,4.34
2019-02-27T02:46:57.887Z,4.28
2019-02-27T02:49:50.113Z,4.26
2019-02-27T02:52:40.216Z,4.25
2019-02-27T02:55:29.114Z,4.18
2019-02-27T02:58:16.211Z,4.11
2019-02-27T03:01:14.161Z,4.02
2019-02-27T03:04:12.564Z,3.93
2019-02-27T03:07:11.062Z,3.86
2019-02-27T03:10:27.883Z,3.77
2019-02-27T03:13:33.924Z,3.66
2019-02-27T03:16:42.388Z,3.62
2019-02-27T03:19:41.466Z,3.56
2019-02-27T03:22:46.153Z,3.53
2019-02-27T03:25:40.665Z,3.49
2019-02-27T03:28:57.463Z,3.44
2019-02-27T03:31:57.563Z,3.37
2019-02-27T03:34:50.207Z,3.27
2019-02-27T03:37:25.045Z,3.18
2019-02-27T03:40:48.100Z,3.12
2019-02-27T03:43:34.322Z,3.07
2019-02-27T03:46:49.088Z,3.01
2019-02-27T03:49:42.426Z,2.97
2019-02-27T03:52:44.039Z,2.91
2019-02-27T03:56:10.108Z,2.83
2019-02-27T03:59:17.411Z,2.76
2019-02-27T04:02:22.024Z,2.73
2019-02-27T04:05:06.939Z,2.71
2019-02-27T04:08:08.280Z,2.74
2019-02-27T04:10:33.601Z,2.76
2019-02-27T04:13:00.641Z,2.80
2019-02-27T04:15:27.675Z,2.88
2019-02-27T04:17:53.713Z,2.98
2019-02-27T04:20:20.747Z,3.05
2019-02-27T04:22:47.789Z,3.09
2019-02-27T04:25:14.840Z,3.08
2019-02-27T04:27:41.869Z,3.05
2019-02-27T04:30:08.927Z,3.01
2019-02-27T04:32:35.982Z,2.99
2019-02-27T04:35:05.929Z,2.97
2019-02-27T04:37:32.030Z,2.96
2019-02-27T04:39:59.104Z,2.95
2019-02-27T04:42:26.526Z,2.95
2019-02-27T04:44:53.557Z,2.98
2019-02-27T04:47:20.984Z,2.96
2019-02-27T04:49:48.036Z,2.96
2019-02-27T04:52:15.072Z,2.93
2019-02-27T04:54:42.198Z,2.92
2019-02-27T04:57:09.256Z,2.89
2019-02-27T04:59:36.281Z,2.86
2019-02-27T05:02:03.328Z,2.82
2019-02-27T05:04:34.793Z,2.77
2019-02-27T05:06:59.288Z,2.76
2019-02-27T05:09:26.344Z,2.74
2019-02-27T05:11:53.390Z,2.71
2019-02-27T05:14:20.456Z,2.67
2019-02-27T05:16:47.836Z,2.61
2019-02-27T05:19:15.311Z,2.59
2019-02-27T05:21:42.493Z,2.56
2019-02-27T05:24:09.526Z,2.52
2019-02-27T05:26:36.562Z,2.50
2019-02-27T05:29:03.620Z,2.47
2019-02-27T05:31:30.671Z,2.45
2019-02-27T05:33:57.722Z,2.43
2019-02-27T05:36:24.800Z,2.43
2019-02-27T05:38:51.855Z,2.42
2019-02-27T05:41:18.896Z,2.39
2019-02-27T05:43:48.454Z,2.37
2019-02-27T05:46:15.189Z,2.35
2019-02-27T05:48:42.311Z,2.34
2019-02-27T05:51:10.737Z,2.36
2019-02-27T05:53:37.798Z,2.36
2019-02-27T05:56:04.827Z,2.37
2019-02-27T05:58:31.865Z,2.38
2019-02-27T06:00:58.891Z,2.43
2019-02-27T06:03:25.937Z,2.78
2019-02-27T06:05:52.995Z,3.19
2019-02-27T06:08:20.035Z,3.58
2019-02-27T06:10:47.055Z,3.99
2019-02-27T06:13:14.700Z,4.28
2019-02-27T06:15:41.859Z,4.52
2019-02-27T06:18:08.923Z,4.60
2019-02-27T06:20:35.953Z,4.62
2019-02-27T06:23:04.398Z,4.69
2019-02-27T06:25:32.103Z,4.80
2019-02-27T06:27:59.151Z,4.89
2019-02-27T06:30:27.955Z,4.96
2019-02-27T06:32:55.263Z,4.97
2019-02-27T06:35:22.305Z,4.98
2019-02-27T06:37:50.702Z,4.86
2019-02-27T06:40:18.568Z,4.71
2019-02-27T06:42:45.688Z,4.54
2019-02-27T06:45:13.494Z,4.34
2019-02-27T06:47:40.523Z,4.13
2019-02-27T06:50:09.298Z,3.97
2019-02-27T06:52:36.353Z,3.81
2019-02-27T06:55:03.980Z,3.68
2019-02-27T06:57:31.149Z,3.59
2019-02-27T07:00:02.067Z,3.52
2019-02-27T07:02:27.129Z,3.46
2019-02-27T07:04:54.185Z,3.63
2019-02-27T07:07:21.230Z,4.18
2019-02-27T07:09:48.292Z,4.86
2019-02-27T07:12:15.357Z,5.45
2019-02-27T07:14:42.392Z,5.93
2019-02-27T07:17:09.430Z,6.05
2019-02-27T07:19:36.468Z,6.10
2019-02-27T07:22:03.504Z,6.60
2019-02-27T07:24:33.045Z,6.28
2019-02-27T07:26:59.516Z,5.85
2019-02-27T07:29:27.560Z,5.54
2019-02-27T07:31:57.160Z,5.28
2019-02-27T07:34:24.142Z,5.09
2019-02-27T07:36:51.203Z,4.96
2019-02-27T07:39:18.260Z,4.85
2019-02-27T07:41:45.350Z,4.77
2019-02-27T07:44:12.388Z,4.70
2019-02-27T07:46:39.487Z,4.68
2019-02-27T07:49:06.546Z,4.68
2019-02-27T07:51:36.651Z,4.74
2019-02-27T07:54:04.021Z,4.78
2019-02-27T07:56:31.088Z,4.83
2019-02-27T07:58:58.137Z,4.92
2019-02-27T08:01:25.171Z,5.02
2019-02-27T08:03:52.221Z,5.11
2019-02-27T08:06:19.356Z,5.16
2019-02-27T08:08:46.396Z,5.20
2019-02-27T08:11:14.156Z,5.29
2019-02-27T08:13:41.332Z,5.42
2019-02-27T08:16:08.356Z,5.58
2019-02-27T08:18:37.717Z,5.76
2019-02-27T08:21:04.383Z,5.92
2019-02-27T08:23:31.727Z,6.05
2019-02-27T08:26:04.774Z,6.21
2019-02-27T08:28:28.826Z,6.33
2019-02-27T08:30:55.867Z,6.46
2019-02-27T08:33:22.941Z,6.62
2019-02-27T08:35:50.008Z,6.87
2019-02-27T08:38:17.070Z,7.04
2019-02-27T08:40:44.146Z,7.12
2019-02-27T08:43:11.209Z,7.22
2019-02-27T08:45:38.251Z,7.38
2019-02-27T08:48:05.317Z,7.55
2019-02-27T08:50:32.386Z,7.68
2019-02-27T08:52:59.438Z,7.78
2019-02-27T08:55:26.483Z,7.91
2019-02-27T08:57:56.843Z,8.01
2019-02-27T09:00:23.418Z,8.09
2019-02-27T09:02:50.474Z,8.17
2019-02-27T09:05:20.030Z,8.24
2019-02-27T09:07:46.643Z,8.33
2019-02-27T09:10:14.333Z,8.42
2019-02-27T09:12:41.418Z,8.51
2019-02-27T09:15:09.035Z,8.61
2019-02-27T09:17:36.119Z,8.70
2019-02-27T09:20:03.680Z,8.78
2019-02-27T09:22:30.740Z,8.80
2019-02-27T09:24:57.791Z,8.87
2019-02-27T09:27:24.852Z,8.93
2019-02-27T09:29:52.358Z,8.95
2019-02-27T09:32:20.912Z,9.00
2019-02-27T09:34:47.957Z,9.08
2019-02-27T09:37:16.833Z,9.17
2019-02-27T09:39:44.302Z,9.24
2019-02-27T09:42:11.344Z,9.32
2019-02-27T09:44:38.432Z,9.42
2019-02-27T09:47:05.472Z,9.53
2019-02-27T09:49:32.539Z,9.60
2019-02-27T09:51:59.578Z,9.73
2019-02-27T09:54:26.620Z,9.83
2019-02-27T09:56:53.687Z,9.95
2019-02-27T09:59:20.742Z,10.06
2019-02-27T10:01:47.811Z,10.22
2019-02-27T10:04:14.868Z,10.44
2019-02-27T10:06:42.791Z,10.63
2019-02-27T10:09:15.175Z,10.81
2019-02-27T10:11:42.324Z,10.98
2019-02-27T10:14:09.392Z,11.24
2019-02-27T10:16:36.473Z,11.45
2019-02-27T10:19:03.565Z,11.68
2019-02-27T10:21:30.627Z,11.93
2019-02-27T10:23:57.681Z,12.15
2019-02-27T10:26:24.758Z,12.34
2019-02-27T10:28:51.811Z,12.56
2019-02-27T10:31:18.881Z,12.67
2019-02-27T10:33:45.967Z,12.83
2019-02-27T10:36:13.066Z,12.97
2019-02-27T10:38:40.584Z,13.36
2019-02-27T10:41:07.742Z,13.48
2019-02-27T10:43:34.820Z,13.48
2019-02-27T10:46:01.997Z,13.84
2019-02-27T10:48:29.086Z,13.91
2019-02-27T10:50:56.131Z,13.91
2019-02-27T10:53:27.198Z,13.87
2019-02-27T10:55:52.146Z,13.95
2019-02-27T10:58:19.207Z,14.09
2019-02-27T11:00:48.660Z,14.26
2019-02-27T11:03:15.745Z,14.30
2019-02-27T11:05:42.799Z,14.37
2019-02-27T11:08:09.843Z,14.34
2019-02-27T11:10:36.913Z,14.38
2019-02-27T11:13:06.773Z,14.25
2019-02-27T11:15:32.976Z,14.12
2019-02-27T11:18:04.174Z,14.00
2019-02-27T11:20:29.011Z,14.04
2019-02-27T11:22:56.072Z,14.25
2019-02-27T11:25:23.310Z,14.57
2019-02-27T11:27:50.370Z,14.91
2019-02-27T11:30:19.638Z,15.25
2019-02-27T11:32:46.689Z,15.55
2019-02-27T11:35:13.757Z,15.70
2019-02-27T11:37:40.911Z,15.89
2019-02-27T11:40:09.893Z,16.10
2019-02-27T11:42:36.955Z,16.23
2019-02-27T11:45:04.515Z,16.36
2019-02-27T11:47:31.700Z,16.50
2019-02-27T11:49:58.747Z,16.54
2019-02-27T11:52:28.719Z,16.63
2019-02-27T11:54:54.780Z,16.74
2019-02-27T11:57:21.826Z,16.88
2019-02-27T11:59:48.902Z,17.01
2019-02-27T12:02:15.934Z,17.15
2019-02-27T12:04:43.002Z,17.20
2019-02-27T12:07:10.059Z,17.23
2019-02-27T12:09:37.079Z,17.22
2019-02-27T12:12:04.156Z,17.14
2019-02-27T12:14:31.215Z,17.17
2019-02-27T12:16:58.272Z,17.31
2019-02-27T12:19:25.356Z,17.47
2019-02-27T12:21:52.391Z,17.59
2019-02-27T12:24:19.626Z,17.71
2019-02-27T12:26:46.738Z,17.84
2019-02-27T12:29:13.794Z,17.86
2019-02-27T12:31:40.878Z,17.84
2019-02-27T12:34:07.948Z,17.87
2019-02-27T12:36:35.006Z,17.90
2019-02-27T12:39:03.194Z,17.94
2019-02-27T12:41:32.484Z,17.91
2019-02-27T12:43:59.254Z,17.78
2019-02-27T12:46:26.308Z,17.66
2019-02-27T12:48:53.401Z,17.55
2019-02-27T12:51:21.106Z,17.50
2019-02-27T12:53:48.210Z,17.69
2019-02-27T12:56:15.276Z,17.87
2019-02-27T12:58:42.414Z,17.93
2019-02-27T13:01:09.509Z,17.93
2019-02-27T13:03:36.583Z,17.88
2019-02-27T13:06:03.970Z,17.96
2019-02-27T13:08:31.053Z,18.01
2019-02-27T13:10:58.125Z,18.00
2019-02-27T13:13:25.892Z,18.02
2019-02-27T13:15:53.581Z,17.93
2019-02-27T13:18:20.624Z,17.98
2019-02-27T13:20:47.710Z,17.99
2019-02-27T13:23:14.751Z,18.01
2019-02-27T13:25:41.815Z,18.02
2019-02-27T13:28:08.887Z,18.11
2019-02-27T13:30:35.933Z,18.10
2019-02-27T13:33:02.995Z,18.13
2019-02-27T13:35:30.071Z,18.18
2019-02-27T13:37:57.175Z,18.08
2019-02-27T13:40:24.241Z,18.00
2019-02-27T13:42:53.380Z,17.96
2019-02-27T13:45:21.804Z,17.92
2019-02-27T13:47:48.890Z,18.02
2019-02-27T13:50:16.823Z,18.05
2019-02-27T13:52:44.507Z,18.08
2019-02-27T13:55:15.017Z,18.17
2019-02-27T13:57:42.460Z,18.29
2019-02-27T14:00:12.792Z,18.31
2019-02-27T14:02:39.869Z,18.41
2019-02-27T14:05:07.012Z,18.47
2019-02-27T14:07:34.069Z,18.59
2019-02-27T14:10:01.112Z,18.68
2019-02-27T14:12:29.935Z,18.73
2019-02-27T14:14:57.147Z,18.80
2019-02-27T14:17:24.200Z,18.76
2019-02-27T14:19:51.245Z,18.77
2019-02-27T14:22:18.298Z,18.84
2019-02-27T14:24:45.374Z,18.94
2019-02-27T14:27:15.237Z,19.23
2019-02-27T14:29:42.306Z,19.42
2019-02-27T14:32:09.360Z,19.54
2019-02-27T14:34:36.426Z,19.66
2019-02-27T14:37:03.468Z,19.84
2019-02-27T14:39:30.554Z,19.99
2019-02-27T14:41:57.605Z,20.06
2019-02-27T14:44:24.717Z,20.20
2019-02-27T14:46:51.782Z,20.29
2019-02-27T14:49:19.044Z,20.31
2019-02-27T14:51:46.084Z,20.33
2019-02-27T14:54:13.198Z,20.39
2019-02-27T14:56:41.741Z,20.70
2019-02-27T14:59:09.272Z,21.05
2019-02-27T15:01:36.330Z,21.40
2019-02-27T15:04:03.415Z,21.64
2019-02-27T15:06:30.517Z,21.78
2019-02-27T15:08:58.224Z,21.88
2019-02-27T15:11:26.593Z,22.02
2019-02-27T15:13:53.664Z,22.07
2019-02-27T15:16:21.878Z,22.15
2019-02-27T15:18:49.050Z,22.13
2019-02-27T15:21:16.096Z,22.08
2019-02-27T15:23:43.162Z,22.06
2019-02-27T15:26:12.846Z,22.08
2019-02-27T15:28:39.256Z,22.01
2019-02-27T15:31:06.339Z,22.01
2019-02-27T15:33:35.829Z,21.99
2019-02-27T15:36:02.399Z,22.05
2019-02-27T15:38:29.470Z,22.05
2019-02-27T15:40:56.555Z,21.99
2019-02-27T15:43:23.641Z,21.86
2019-02-27T15:45:50.699Z,21.72
2019-02-27T15:48:17.770Z,21.54
2019-02-27T15:50:44.899Z,21.32
2019-02-27T15:53:14.854Z,21.15
2019-02-27T15:55:40.969Z,20.82
2019-02-27T15:58:08.311Z,20.45
2019-02-27T16:00:35.488Z,20.05
2019-02-27T16:03:02.582Z,19.51
2019-02-27T16:05:31.383Z,18.96
2019-02-27T16:07:58.750Z,18.57
2019-02-27T16:10:25.853Z,18.17
2019-02-27T16:12:52.931Z,17.80
2019-02-27T16:15:20.185Z,17.36
2019-02-27T16:17:47.249Z,16.80
2019-02-27T16:20:16.157Z,16.23
2019-02-27T16:22:43.952Z,15.59
2019-02-27T16:25:13.949Z,15.04
2019-02-27T16:27:42.239Z,14.60
2019-02-27T16:30:20.523Z,14.26
2019-02-27T16:32:48.522Z,13.98
2019-02-27T16:35:16.646Z,13.68
2019-02-27T16:37:43.720Z,13.37
2019-02-27T16:40:11.818Z,13.07
2019-02-27T16:42:39.710Z,12.77
2019-02-27T16:45:09.353Z,12.49
2019-02-27T16:47:36.411Z,12.22
2019-02-27T16:50:03.846Z,11.98
2019-02-27T16:52:31.750Z,11.81
2019-02-27T16:55:01.457Z,11.40
2019-02-27T16:57:27.819Z,11.40
2019-02-27T16:59:54.906Z,10.89
2019-02-27T17:02:21.985Z,10.69
2019-02-27T17:04:49.130Z,10.69
2019-02-27T17:07:16.175Z,10.56
2019-02-27T17:09:43.860Z,10.42
2019-02-27T17:12:12.014Z,10.29
2019-02-27T17:14:39.442Z,10.14
2019-02-27T17:17:06.612Z,9.98
2019-02-27T17:19:36.518Z,9.80
2019-02-27T17:22:02.710Z,9.64
2019-02-27T17:24:29.816Z,9.53
2019-02-27T17:26:56.933Z,9.40
2019-02-27T17:29:26.443Z,9.29
2019-02-27T17:31:55.797Z,9.16
2019-02-27T17:34:22.035Z,9.02
2019-02-27T17:36:49.135Z,8.93
2019-02-27T17:39:16.241Z,8.83
2019-02-27T17:41:45.400Z,8.75
2019-02-27T17:44:12.591Z,8.66
2019-02-27T17:46:39.694Z,8.55
2019-02-27T17:49:07.378Z,8.43
2019-02-27T17:51:34.506Z,8.33
2019-02-27T17:54:01.622Z,8.21
2019-02-27T17:56:30.508Z,8.11
2019-02-27T17:59:00.052Z,8.03
2019-02-27T18:01:27.188Z,7.95
2019-02-27T18:03:55.144Z,7.90
2019-02-27T18:06:22.247Z,7.85
2019-02-27T18:08:51.546Z,7.80
2019-02-27T18:11:19.511Z,7.74
2019-02-27T18:13:50.029Z,7.67
2019-02-27T18:16:17.185Z,7.59
2019-02-27T18:18:44.336Z,7.53
2019-02-27T18:21:11.511Z,7.46
2019-02-27T18:23:39.006Z,7.40
2019-02-27T18:26:06.199Z,7.38
2019-02-27T18:28:33.698Z,7.38
2019-02-27T18:31:00.981Z,7.36
2019-02-27T18:33:29.128Z,7.34
2019-02-27T18:35:56.276Z,7.31
2019-02-27T18:38:27.631Z,7.24
2019-02-27T18:40:52.465Z,7.15
2019-02-27T18:43:19.940Z,7.07
2019-02-27T18:45:48.177Z,6.95
2019-02-27T18:48:16.318Z,6.83
2019-02-27T18:50:44.129Z,6.71
2019-02-27T18:53:14.068Z,6.61
2019-02-27T18:55:41.725Z,6.51
2019-02-27T18:58:08.887Z,6.43
2019-02-27T19:00:38.088Z,6.35
2019-02-27T19:03:05.384Z,6.25
2019-02-27T19:05:38.151Z,6.18
2019-02-27T19:08:05.787Z,6.10
2019-02-27T19:10:41.403Z,6.04
2019-02-27T19:13:05.584Z,6.00
2019-02-27T19:15:33.880Z,5.97
2019-02-27T19:18:03.687Z,5.93
2019-02-27T19:20:35.706Z,5.87
2019-02-27T19:23:03.373Z,5.82
2019-02-27T19:25:35.521Z,5.80
2019-02-27T19:28:06.208Z,5.77
2019-02-27T19:30:34.759Z,5.75
2019-02-27T19:33:04.267Z,5.73
2019-02-27T19:35:32.784Z,5.70
2019-02-27T19:38:00.514Z,5.66
2019-02-27T19:40:30.468Z,5.63
2019-02-27T19:43:00.016Z,5.61
2019-02-27T19:45:27.406Z,5.58
2019-02-27T19:47:55.873Z,5.56
2019-02-27T19:50:26.098Z,5.54
2019-02-27T19:52:55.708Z,5.52
2019-02-27T19:55:26.526Z,5.49
2019-02-27T19:57:52.654Z,5.47
2019-02-27T20:00:24.075Z,5.43
2019-02-27T20:02:55.159Z,5.40
2019-02-27T20:05:22.158Z,5.37
2019-02-27T20:07:50.514Z,5.33
2019-02-27T20:10:20.887Z,5.31
2019-02-27T20:12:52.728Z,5.25
2019-02-27T20:15:19.564Z,5.20
2019-02-27T20:17:46.946Z,5.16
2019-02-27T20:20:14.513Z,5.11
2019-02-27T20:22:42.292Z,5.09
2019-02-27T20:25:12.050Z,5.05
2019-02-27T20:27:40.142Z,5.03
2019-02-27T20:30:14.344Z,4.99
2019-02-27T20:32:45.049Z,4.97
2019-02-27T20:35:17.315Z,4.95
2019-02-27T20:37:44.969Z,4.90
2019-02-27T20:40:15.266Z,4.84
2019-02-27T20:42:50.386Z,4.79
2019-02-27T20:45:17.628Z,4.77
2019-02-27T20:47:45.519Z,4.72
2019-02-27T20:50:20.934Z,4.67
2019-02-27T20:52:46.502Z,4.61
2019-02-27T20:55:15.068Z,4.54
2019-02-27T20:57:44.890Z,4.48
2019-02-27T21:00:13.257Z,4.42
2019-02-27T21:02:40.656Z,4.37
2019-02-27T21:05:09.493Z,4.34
2019-02-27T21:07:37.860Z,4.33
2019-02-27T21:10:08.269Z,4.33
2019-02-27T21:12:37.382Z,4.31
2019-02-27T21:15:05.694Z,4.31
2019-02-27T21:17:32.968Z,4.31
2019-02-27T21:20:00.470Z,4.29
2019-02-27T21:22:27.857Z,4.26
2019-02-27T21:24:55.596Z,4.23
2019-02-27T21:27:22.783Z,4.21
2019-02-27T21:29:49.881Z,4.20
2019-02-27T21:32:17.020Z,4.18
2019-02-27T21:34:44.150Z,4.17
2019-02-27T21:37:11.276Z,4.14
2019-02-27T21:39:39.175Z,4.14
2019-02-27T21:42:07.156Z,4.11
2019-02-27T21:44:34.285Z,4.07
2019-02-27T21:47:01.420Z,4.04
2019-02-27T21:49:31.614Z,3.99
2019-02-27T21:51:57.731Z,3.95
2019-02-27T21:54:24.870Z,3.92
2019-02-27T21:56:52.562Z,3.87
2019-02-27T21:59:19.816Z,3.84
2019-02-27T22:01:50.083Z,3.82
2019-02-27T22:04:17.177Z,3.79
2019-02-27T22:06:44.250Z,3.75
2019-02-27T22:09:13.657Z,3.74
2019-02-27T22:11:40.284Z,3.69
2019-02-27T22:14:07.358Z,3.67
2019-02-27T22:16:34.536Z,3.64
2019-02-27T22:19:01.610Z,3.61
2019-02-27T22:21:31.314Z,3.56
2019-02-27T22:23:57.602Z,3.54
2019-02-27T22:26:24.762Z,3.53
2019-02-27T22:28:54.385Z,3.52
2019-02-27T22:31:20.783Z,3.47
2019-02-27T22:33:47.824Z,3.43
2019-02-27T22:36:14.868Z,3.38
2019-02-27T22:38:41.907Z,3.37
2019-02-27T22:41:09.687Z,3.34
2019-02-27T22:43:37.193Z,3.33
2019-02-27T22:46:04.268Z,3.34
2019-02-27T22:48:31.313Z,3.29
2019-02-27T22:50:58.364Z,3.24
2019-02-27T22:53:26.192Z,3.19
2019-02-27T22:55:54.383Z,3.15
2019-02-27T22:58:21.431Z,3.15
2019-02-27T23:01:05.880Z,3.14
2019-02-27T23:03:41.323Z,3.12
2019-02-27T23:06:12.228Z,3.10
2019-02-27T23:08:38.438Z,3.07
2019-02-27T23:11:05.657Z,3.04
2019-02-27T23:13:32.719Z,3.01
2019-02-27T23:15:59.754Z,2.99
2019-02-27T23:18:33.719Z,2.98
2019-02-27T23:21:00.788Z,2.97
2019-02-27T23:23:27.812Z,2.97
2019-02-27T23:25:54.888Z,2.96
2019-02-27T23:28:21.933Z,2.91
2019-02-27T23:30:49.000Z,2.89
2019-02-27T23:33:16.021Z,2.87
2019-02-27T23:35:43.051Z,2.83
2019-02-27T23:38:10.092Z,2.79
2019-02-27T23:40:37.134Z,2.76
2019-02-27T23:43:04.185Z,2.72
2019-02-27T23:45:31.215Z,2.69
2019-02-27T23:47:59.225Z,2.64
2019-02-27T23:50:27.185Z,2.64
2019-02-27T23:52:54.242Z,2.65
2019-02-27T23:55:21.319Z,2.67
2019-02-27T23:57:48.360Z,2.68
